A- A+ FrançaisEnglishEspañol中国

Services sur Internet Soldes sur Internet Des idées de cadeaux Météo Météo aéro

La météo à : Autours de vous Tarbes-Lourdes-PyrénéesPoitiers-Biard Strasbourg-EntzheimTarbes-Laloubere

La météo aéronautique pour les pilotes, la préparation du vol avec les METAR (METeorological Aerodrome Report, message d'observation des conditions météorologiques pour l'aviation) et Les TAF (Terminal Aerodrome Forecast : message de prévision à court terme des conditions météorologiques pour l'aviation). Et les autres ressources comme les VAC (Visual Approch Chart) et les NOTAM (Notice To Airman) pour préprer les vols.

Aéroport Blackpool (Royaume-Uni) / OACI EGNH/ IATA BLK

L'altitude de l'aéroport Blackpool est de 10 m = 33 ft. Il est situé à proximité de Blackpool (Royaume-Uni). La météo générale à 5 jours est disponible pour Marton situé à 2.3 km.

METAR de l'aéroport Blackpool - EGNH

EGNH 100950Z 17020KT 6000 RA BKN015 08/07 Q1003

Décodage du METAR de l'aéroport Blackpool (GB)

METAR émis par EGNH le mardi 10 décembre 2019 à 09:50 heure TU, il y a 14 minutes.

La visibilité est de 6 km = 3.7 sm.

La température est de 8°C = 46 °F et le point rosée est de 7°C = 45 °F . Ce qui correspond à 93% d'humidité relative.

Le QNH est de 1003 hPa = 29.62 inHg

Vent de 20 kt = 37 km/h, orienté à 170°.

Nuages : Couverture nuageuse fragmentée à 1500 ft = 460 mètres.

RA

TAF de l'aéroport Blackpool - EGNH

EGNH 100806Z 1009/1018 17018G30KT 9999 SCT020

EGNH 100806Z 1009/1018 17018G30KT 9999 nuages épars à 020

Aéroport à proximité de Blackpool

Météo générale à 5 jours à Marton (2.3 km)Aéroport Warton (10 km)Aéroport Woodvale (21 km)Aéroport Barrow (43 km)Aéroport Liverpool (50 km)Aéroport Manchester Barton (54 km)Aéroport Hawarden (66 km)

Vue aérienne de l'aéroport Blackpool

NOTAM de l'aéroport Blackpool

Les NOTAM sont fournis sans aucune garantie de leur actualité. Le pilote est le seul responsable de la vérification de sa validité avant de l'utiliser opérationnellement pour préparer un vol ou l'utiliser lors de sa navigation.

Pas de NOTAM

Sources des données